Aérodrome :
LOGIN :

S'inscrire | Disclaimer

   EN    FR    IT 

 










Légende :    VFR   VFR Marginal   IFR   IFR Intensif   IFR Très Intensif
Visi : 
Plafond : 
>= 8 km
>= 3000ft
5 à 8 km
1000 à 3000 ft
1500m à 5 km
500 à 1000 ft
800 à 1500m
200 à 500 ft
< 800m
< 200 ft
Symboles :   Orages  Brouillard  Fortes neiges  Fortes précipitations  Vent > 20 kt
SIGMETs :   Divers  Orages  Givrage  Turbulence  Onde Orograph.  Cendres Volcan.






- Altitude de l'aérodrome : 353 ft
- Code IATA : ZAG


LDZA - Zagreb Pleso

DERNIER METAR :
  • 151300Z 22011KT 180V260 CAVOK 24/13 Q1013 NOSIG

METARs EXPIRÉS :
  • 151230Z 23009KT 170V270 9999 FEW040 24/14 Q1014 NOSIG
  • 151200Z 22009KT 140V250 9999 FEW035 23/14 Q1014 NOSIG
  • 151130Z 23008KT 180V270 CAVOK 23/14 Q1015 NOSIG
  • 151100Z 22010KT 170V270 CAVOK 22/14 Q1015 NOSIG
  • 151030Z 22010KT 170V250 CAVOK 22/13 Q1016 NOSIG

TAF TAF LDZA
Valide du 15 à 12h jusqu'au 16 à 12h UTC


151125Z 1512/1612 23008KT CAVOK TX23/1513Z TN09/1604Z
BECMG 1520/1522 VRB02KT
PROB30
TEMPO 1602/1606 1500 BCFG
PROB30
TEMPO 1607/1611 SHRA FEW030TCU BKN035
BECMG 1610/1612 26007KT
ATIS : +385 1 6-259-214



MET'MAP, la Météo Aéronautique d'un coup d'oeil ! - Copyright ORBIFLY Décembre 2007 - Disclaimer

ORBIFLY MET'MAP TEAM :

Programmation & Développement : Alexandra Zaïnal
Conception & Développement : Baudouin d'Aumeries
Co-Programmation & Développement : Marc-Olivier Méhu
Soutien technique & logistique : Manuel Goepfert

Contact : metmap@orbifly.com




SOURCES & CREDITS :

   NOAA